sensor_id;sensor_type;location;lat;lon;timestamp;P1;durP1;ratioP1;P2;durP2;ratioP2
78838;SDS011;68405;47.190;27.558;2023-09-12T00:00:06;3.90;;;2.20;;
78838;SDS011;68405;47.190;27.558;2023-09-12T00:02:56;3.10;;;2.10;;
78838;SDS011;68405;47.190;27.558;2023-09-12T00:05:25;8.70;;;2.60;;
78838;SDS011;68405;47.190;27.558;2023-09-12T00:07:54;6.00;;;2.40;;
78838;SDS011;68405;47.190;27.558;2023-09-12T00:10:23;4.40;;;2.20;;
78838;SDS011;68405;47.190;27.558;2023-09-12T00:12:53;5.00;;;2.30;;
78838;SDS011;68405;47.190;27.558;2023-09-12T00:15:22;4.20;;;2.20;;
78838;SDS011;68405;47.190;27.558;2023-09-12T00:17:50;4.70;;;2.00;;
78838;SDS011;68405;47.190;27.558;2023-09-12T00:20:19;6.80;;;2.80;;
78838;SDS011;68405;47.190;27.558;2023-09-12T00:22:48;4.20;;;2.40;;
78838;SDS011;68405;47.190;27.558;2023-09-12T00:25:17;4.50;;;2.50;;
78838;SDS011;68405;47.190;27.558;2023-09-12T00:27:46;5.60;;;2.20;;
78838;SDS011;68405;47.190;27.558;2023-09-12T00:30:15;4.20;;;2.10;;
78838;SDS011;68405;47.190;27.558;2023-09-12T00:32:45;4.40;;;2.10;;
78838;SDS011;68405;47.190;27.558;2023-09-12T00:35:14;4.70;;;2.50;;
78838;SDS011;68405;47.190;27.558;2023-09-12T00:37:43;4.90;;;2.20;;
78838;SDS011;68405;47.190;27.558;2023-09-12T00:40:12;5.00;;;2.40;;
78838;SDS011;68405;47.190;27.558;2023-09-12T00:42:41;5.50;;;2.40;;
78838;SDS011;68405;47.190;27.558;2023-09-12T00:45:10;5.40;;;2.60;;
78838;SDS011;68405;47.190;27.558;2023-09-12T00:47:39;5.50;;;2.50;;
78838;SDS011;68405;47.190;27.558;2023-09-12T00:50:09;6.40;;;2.80;;
78838;SDS011;68405;47.190;27.558;2023-09-12T00:52:39;6.30;;;3.10;;
78838;SDS011;68405;47.190;27.558;2023-09-12T00:55:09;6.50;;;2.90;;
78838;SDS011;68405;47.190;27.558;2023-09-12T00:57:39;7.20;;;3.10;;
78838;SDS011;68405;47.190;27.558;2023-09-12T01:00:10;7.60;;;3.30;;
78838;SDS011;68405;47.190;27.558;2023-09-12T01:02:41;4.80;;;3.50;;
78838;SDS011;68405;47.190;27.558;2023-09-12T01:05:11;8.70;;;4.60;;
78838;SDS011;68405;47.190;27.558;2023-09-12T01:07:41;11.20;;;4.30;;
78838;SDS011;68405;47.190;27.558;2023-09-12T01:10:11;6.40;;;4.50;;
78838;SDS011;68405;47.190;27.558;2023-09-12T01:12:41;10.00;;;5.80;;
78838;SDS011;68405;47.190;27.558;2023-09-12T01:15:10;12.10;;;6.70;;
78838;SDS011;68405;47.190;27.558;2023-09-12T01:17:41;10.80;;;6.70;;
78838;SDS011;68405;47.190;27.558;2023-09-12T01:20:14;14.30;;;8.40;;
78838;SDS011;68405;47.190;27.558;2023-09-12T01:26:14;17.40;;;9.70;;
78838;SDS011;68405;47.190;27.558;2023-09-12T01:28:53;16.30;;;8.90;;
78838;SDS011;68405;47.190;27.558;2023-09-12T01:31:24;10.70;;;6.40;;
78838;SDS011;68405;47.190;27.558;2023-09-12T01:33:57;17.20;;;8.70;;
78838;SDS011;68405;47.190;27.558;2023-09-12T01:36:36;23.00;;;10.10;;
78838;SDS011;68405;47.190;27.558;2023-09-12T01:39:06;15.30;;;9.00;;
78838;SDS011;68405;47.190;27.558;2023-09-12T01:41:37;17.80;;;9.80;;
78838;SDS011;68405;47.190;27.558;2023-09-12T01:44:10;13.90;;;9.30;;
78838;SDS011;68405;47.190;27.558;2023-09-12T01:46:42;18.40;;;8.80;;
78838;SDS011;68405;47.190;27.558;2023-09-12T01:49:12;15.70;;;8.10;;
78838;SDS011;68405;47.190;27.558;2023-09-12T01:51:43;17.80;;;8.90;;
78838;SDS011;68405;47.190;27.558;2023-09-12T01:54:12;17.10;;;7.00;;
78838;SDS011;68405;47.190;27.558;2023-09-12T01:56:43;15.30;;;8.00;;
78838;SDS011;68405;47.190;27.558;2023-09-12T01:59:12;14.30;;;7.80;;
78838;SDS011;68405;47.190;27.558;2023-09-12T02:01:41;12.00;;;6.30;;
78838;SDS011;68405;47.190;27.558;2023-09-12T02:04:10;11.90;;;6.40;;
78838;SDS011;68405;47.190;27.558;2023-09-12T02:06:39;12.20;;;7.00;;
78838;SDS011;68405;47.190;27.558;2023-09-12T02:09:08;16.60;;;8.00;;
78838;SDS011;68405;47.190;27.558;2023-09-12T02:11:36;21.70;;;11.70;;
78838;SDS011;68405;47.190;27.558;2023-09-12T02:14:05;27.90;;;14.10;;
78838;SDS011;68405;47.190;27.558;2023-09-12T02:16:35;31.30;;;15.10;;
78838;SDS011;68405;47.190;27.558;2023-09-12T02:19:05;28.90;;;13.00;;
78838;SDS011;68405;47.190;27.558;2023-09-12T02:21:34;35.80;;;17.90;;
78838;SDS011;68405;47.190;27.558;2023-09-12T02:24:03;35.60;;;16.20;;
78838;SDS011;68405;47.190;27.558;2023-09-12T02:26:33;36.20;;;17.70;;
78838;SDS011;68405;47.190;27.558;2023-09-12T02:29:03;35.50;;;18.00;;
78838;SDS011;68405;47.190;27.558;2023-09-12T02:31:33;29.60;;;17.00;;
78838;SDS011;68405;47.190;27.558;2023-09-12T02:34:02;29.20;;;13.70;;
78838;SDS011;68405;47.190;27.558;2023-09-12T02:36:31;31.90;;;13.80;;
78838;SDS011;68405;47.190;27.558;2023-09-12T02:39:00;31.80;;;14.70;;
78838;SDS011;68405;47.190;27.558;2023-09-12T02:41:30;24.60;;;11.70;;
78838;SDS011;68405;47.190;27.558;2023-09-12T02:43:59;27.70;;;12.60;;
78838;SDS011;68405;47.190;27.558;2023-09-12T02:46:27;30.10;;;14.60;;
78838;SDS011;68405;47.190;27.558;2023-09-12T02:48:56;27.00;;;13.70;;
78838;SDS011;68405;47.190;27.558;2023-09-12T02:51:25;31.90;;;15.80;;
78838;SDS011;68405;47.190;27.558;2023-09-12T02:53:54;32.30;;;15.40;;
78838;SDS011;68405;47.190;27.558;2023-09-12T02:56:23;38.80;;;18.90;;
78838;SDS011;68405;47.190;27.558;2023-09-12T02:58:52;39.90;;;17.90;;
78838;SDS011;68405;47.190;27.558;2023-09-12T03:01:22;37.40;;;16.80;;
78838;SDS011;68405;47.190;27.558;2023-09-12T03:03:55;45.80;;;21.00;;
78838;SDS011;68405;47.190;27.558;2023-09-12T03:06:24;45.20;;;20.90;;
78838;SDS011;68405;47.190;27.558;2023-09-12T03:08:54;39.00;;;17.50;;
78838;SDS011;68405;47.190;27.558;2023-09-12T03:11:23;32.30;;;16.70;;
78838;SDS011;68405;47.190;27.558;2023-09-12T03:13:55;27.40;;;12.70;;
78838;SDS011;68405;47.190;27.558;2023-09-12T03:16:24;34.90;;;16.20;;
78838;SDS011;68405;47.190;27.558;2023-09-12T03:18:53;27.80;;;15.20;;
78838;SDS011;68405;47.190;27.558;2023-09-12T03:21:21;31.80;;;14.90;;
78838;SDS011;68405;47.190;27.558;2023-09-12T03:23:50;29.40;;;13.80;;
78838;SDS011;68405;47.190;27.558;2023-09-12T03:26:19;34.40;;;14.50;;
78838;SDS011;68405;47.190;27.558;2023-09-12T03:28:49;24.00;;;11.70;;
78838;SDS011;68405;47.190;27.558;2023-09-12T03:31:18;27.40;;;12.50;;
78838;SDS011;68405;47.190;27.558;2023-09-12T03:33:47;20.90;;;10.30;;
78838;SDS011;68405;47.190;27.558;2023-09-12T03:36:17;17.50;;;8.70;;
78838;SDS011;68405;47.190;27.558;2023-09-12T03:38:46;16.10;;;8.10;;
78838;SDS011;68405;47.190;27.558;2023-09-12T03:41:15;13.60;;;7.90;;
78838;SDS011;68405;47.190;27.558;2023-09-12T03:43:45;11.80;;;7.20;;
78838;SDS011;68405;47.190;27.558;2023-09-12T03:46:14;12.90;;;7.60;;
78838;SDS011;68405;47.190;27.558;2023-09-12T03:48:44;18.40;;;7.70;;
78838;SDS011;68405;47.190;27.558;2023-09-12T03:51:13;11.80;;;5.70;;
78838;SDS011;68405;47.190;27.558;2023-09-12T03:53:42;13.30;;;6.60;;
78838;SDS011;68405;47.190;27.558;2023-09-12T03:56:10;10.50;;;5.90;;
78838;SDS011;68405;47.190;27.558;2023-09-12T03:58:40;10.80;;;5.80;;
78838;SDS011;68405;47.190;27.558;2023-09-12T04:01:09;13.40;;;5.20;;
78838;SDS011;68405;47.190;27.558;2023-09-12T04:03:39;12.40;;;5.20;;
78838;SDS011;68405;47.190;27.558;2023-09-12T04:06:08;12.80;;;4.40;;
78838;SDS011;68405;47.190;27.558;2023-09-12T04:08:37;8.40;;;4.10;;
78838;SDS011;68405;47.190;27.558;2023-09-12T04:11:06;7.60;;;4.60;;
78838;SDS011;68405;47.190;27.558;2023-09-12T04:13:36;11.10;;;4.90;;
78838;SDS011;68405;47.190;27.558;2023-09-12T04:16:05;10.50;;;5.00;;
78838;SDS011;68405;47.190;27.558;2023-09-12T04:18:34;11.70;;;4.30;;
78838;SDS011;68405;47.190;27.558;2023-09-12T04:21:03;8.20;;;4.40;;
78838;SDS011;68405;47.190;27.558;2023-09-12T04:23:32;6.60;;;4.20;;
78838;SDS011;68405;47.190;27.558;2023-09-12T04:26:01;7.60;;;3.90;;
78838;SDS011;68405;47.190;27.558;2023-09-12T04:28:30;8.30;;;4.60;;
78838;SDS011;68405;47.190;27.558;2023-09-12T04:31:03;8.50;;;4.30;;
78838;SDS011;68405;47.190;27.558;2023-09-12T04:33:32;8.30;;;5.30;;
78838;SDS011;68405;47.190;27.558;2023-09-12T04:36:02;11.60;;;6.10;;
78838;SDS011;68405;47.190;27.558;2023-09-12T04:38:31;11.80;;;5.50;;
78838;SDS011;68405;47.190;27.558;2023-09-12T04:41:02;10.60;;;5.80;;
78838;SDS011;68405;47.190;27.558;2023-09-12T04:43:33;11.70;;;5.80;;
78838;SDS011;68405;47.190;27.558;2023-09-12T04:46:03;13.80;;;5.90;;
78838;SDS011;68405;47.190;27.558;2023-09-12T04:48:32;13.40;;;5.70;;
78838;SDS011;68405;47.190;27.558;2023-09-12T04:51:02;12.80;;;5.70;;
78838;SDS011;68405;47.190;27.558;2023-09-12T04:53:31;8.40;;;4.40;;
78838;SDS011;68405;47.190;27.558;2023-09-12T04:56:02;12.30;;;5.40;;
78838;SDS011;68405;47.190;27.558;2023-09-12T04:58:33;9.40;;;5.40;;
78838;SDS011;68405;47.190;27.558;2023-09-12T05:01:03;12.40;;;6.50;;
78838;SDS011;68405;47.190;27.558;2023-09-12T05:03:32;11.80;;;5.40;;
78838;SDS011;68405;47.190;27.558;2023-09-12T05:06:01;9.80;;;5.30;;
78838;SDS011;68405;47.190;27.558;2023-09-12T05:08:30;10.90;;;4.10;;
78838;SDS011;68405;47.190;27.558;2023-09-12T05:11:00;12.50;;;4.90;;
78838;SDS011;68405;47.190;27.558;2023-09-12T05:13:29;12.30;;;4.60;;
78838;SDS011;68405;47.190;27.558;2023-09-12T05:15:59;11.20;;;4.40;;
78838;SDS011;68405;47.190;27.558;2023-09-12T05:18:28;14.30;;;4.50;;
78838;SDS011;68405;47.190;27.558;2023-09-12T05:20:57;10.70;;;4.30;;
78838;SDS011;68405;47.190;27.558;2023-09-12T05:23:26;7.40;;;3.60;;
78838;SDS011;68405;47.190;27.558;2023-09-12T05:25:55;9.00;;;3.80;;
78838;SDS011;68405;47.190;27.558;2023-09-12T05:28:24;7.40;;;3.60;;
78838;SDS011;68405;47.190;27.558;2023-09-12T05:30:54;8.20;;;3.20;;
78838;SDS011;68405;47.190;27.558;2023-09-12T05:33:23;7.60;;;3.50;;
78838;SDS011;68405;47.190;27.558;2023-09-12T05:35:52;7.00;;;3.30;;
78838;SDS011;68405;47.190;27.558;2023-09-12T05:38:21;9.30;;;3.10;;
78838;SDS011;68405;47.190;27.558;2023-09-12T05:40:50;5.70;;;3.10;;
78838;SDS011;68405;47.190;27.558;2023-09-12T05:43:20;11.70;;;3.80;;
78838;SDS011;68405;47.190;27.558;2023-09-12T05:45:51;8.90;;;4.20;;
78838;SDS011;68405;47.190;27.558;2023-09-12T05:48:22;11.70;;;3.80;;
78838;SDS011;68405;47.190;27.558;2023-09-12T05:50:51;9.60;;;3.70;;
78838;SDS011;68405;47.190;27.558;2023-09-12T05:53:20;5.30;;;2.90;;
78838;SDS011;68405;47.190;27.558;2023-09-12T05:55:49;10.00;;;4.10;;
78838;SDS011;68405;47.190;27.558;2023-09-12T05:58:18;10.20;;;3.90;;
78838;SDS011;68405;47.190;27.558;2023-09-12T06:00:47;7.80;;;3.80;;
78838;SDS011;68405;47.190;27.558;2023-09-12T06:03:17;7.50;;;3.40;;
78838;SDS011;68405;47.190;27.558;2023-09-12T06:05:49;9.80;;;4.40;;
78838;SDS011;68405;47.190;27.558;2023-09-12T06:08:25;10.10;;;3.80;;
78838;SDS011;68405;47.190;27.558;2023-09-12T06:10:55;7.10;;;4.20;;
78838;SDS011;68405;47.190;27.558;2023-09-12T06:13:24;6.40;;;3.90;;
78838;SDS011;68405;47.190;27.558;2023-09-12T06:15:53;9.30;;;5.30;;
78838;SDS011;68405;47.190;27.558;2023-09-12T06:18:22;9.80;;;5.20;;
78838;SDS011;68405;47.190;27.558;2023-09-12T06:20:54;8.30;;;5.10;;
78838;SDS011;68405;47.190;27.558;2023-09-12T06:23:23;7.30;;;4.40;;
78838;SDS011;68405;47.190;27.558;2023-09-12T06:25:52;10.30;;;5.20;;
78838;SDS011;68405;47.190;27.558;2023-09-12T06:28:27;8.80;;;4.20;;
78838;SDS011;68405;47.190;27.558;2023-09-12T06:30:57;13.50;;;5.30;;
78838;SDS011;68405;47.190;27.558;2023-09-12T06:33:26;10.30;;;4.20;;
78838;SDS011;68405;47.190;27.558;2023-09-12T06:35:55;7.10;;;4.10;;
78838;SDS011;68405;47.190;27.558;2023-09-12T06:38:24;7.30;;;3.90;;
78838;SDS011;68405;47.190;27.558;2023-09-12T06:40:53;9.20;;;3.80;;
78838;SDS011;68405;47.190;27.558;2023-09-12T06:43:23;8.80;;;3.70;;
78838;SDS011;68405;47.190;27.558;2023-09-12T06:45:52;8.10;;;3.60;;
78838;SDS011;68405;47.190;27.558;2023-09-12T06:48:21;6.30;;;3.10;;
78838;SDS011;68405;47.190;27.558;2023-09-12T06:50:50;8.50;;;3.70;;
78838;SDS011;68405;47.190;27.558;2023-09-12T06:53:19;9.30;;;4.10;;
78838;SDS011;68405;47.190;27.558;2023-09-12T06:55:49;7.10;;;4.00;;
78838;SDS011;68405;47.190;27.558;2023-09-12T06:58:17;7.40;;;3.60;;
78838;SDS011;68405;47.190;27.558;2023-09-12T07:00:47;8.70;;;3.60;;
78838;SDS011;68405;47.190;27.558;2023-09-12T07:03:15;9.10;;;3.90;;
78838;SDS011;68405;47.190;27.558;2023-09-12T07:05:45;7.00;;;3.70;;
78838;SDS011;68405;47.190;27.558;2023-09-12T07:08:14;8.00;;;3.60;;
78838;SDS011;68405;47.190;27.558;2023-09-12T07:10:44;7.90;;;4.30;;
78838;SDS011;68405;47.190;27.558;2023-09-12T07:13:14;8.10;;;3.60;;
78838;SDS011;68405;47.190;27.558;2023-09-12T07:15:43;8.20;;;3.30;;
78838;SDS011;68405;47.190;27.558;2023-09-12T07:18:12;7.90;;;3.30;;
78838;SDS011;68405;47.190;27.558;2023-09-12T07:20:42;7.10;;;2.70;;
78838;SDS011;68405;47.190;27.558;2023-09-12T07:23:12;6.50;;;2.70;;
78838;SDS011;68405;47.190;27.558;2023-09-12T07:25:41;5.10;;;2.50;;
78838;SDS011;68405;47.190;27.558;2023-09-12T07:28:10;4.40;;;2.70;;
78838;SDS011;68405;47.190;27.558;2023-09-12T07:30:41;4.80;;;3.00;;
78838;SDS011;68405;47.190;27.558;2023-09-12T07:33:13;7.00;;;2.70;;
78838;SDS011;68405;47.190;27.558;2023-09-12T07:35:42;4.80;;;2.70;;
78838;SDS011;68405;47.190;27.558;2023-09-12T07:38:11;7.80;;;2.80;;
78838;SDS011;68405;47.190;27.558;2023-09-12T07:40:42;9.80;;;2.80;;
78838;SDS011;68405;47.190;27.558;2023-09-12T07:43:11;11.20;;;2.90;;
78838;SDS011;68405;47.190;27.558;2023-09-12T07:45:40;7.10;;;3.20;;
78838;SDS011;68405;47.190;27.558;2023-09-12T07:48:09;7.10;;;3.40;;
78838;SDS011;68405;47.190;27.558;2023-09-12T07:50:38;4.40;;;2.70;;
78838;SDS011;68405;47.190;27.558;2023-09-12T07:53:08;7.70;;;3.20;;
78838;SDS011;68405;47.190;27.558;2023-09-12T07:55:37;4.40;;;2.80;;
78838;SDS011;68405;47.190;27.558;2023-09-12T07:58:13;7.50;;;3.00;;
78838;SDS011;68405;47.190;27.558;2023-09-12T08:00:42;4.70;;;3.00;;
78838;SDS011;68405;47.190;27.558;2023-09-12T08:03:12;5.70;;;2.80;;
78838;SDS011;68405;47.190;27.558;2023-09-12T08:05:41;4.50;;;2.60;;
78838;SDS011;68405;47.190;27.558;2023-09-12T08:08:13;7.00;;;2.80;;
78838;SDS011;68405;47.190;27.558;2023-09-12T08:10:42;5.80;;;2.60;;
78838;SDS011;68405;47.190;27.558;2023-09-12T08:13:13;7.80;;;3.10;;
78838;SDS011;68405;47.190;27.558;2023-09-12T08:15:42;7.10;;;2.90;;
78838;SDS011;68405;47.190;27.558;2023-09-12T08:18:11;6.60;;;3.00;;
78838;SDS011;68405;47.190;27.558;2023-09-12T08:20:41;6.50;;;2.70;;
78838;SDS011;68405;47.190;27.558;2023-09-12T08:23:10;6.50;;;3.00;;
78838;SDS011;68405;47.190;27.558;2023-09-12T08:25:40;4.60;;;2.80;;
78838;SDS011;68405;47.190;27.558;2023-09-12T08:28:08;5.80;;;2.80;;
78838;SDS011;68405;47.190;27.558;2023-09-12T08:30:37;4.40;;;2.80;;
78838;SDS011;68405;47.190;27.558;2023-09-12T08:33:06;4.60;;;2.60;;
78838;SDS011;68405;47.190;27.558;2023-09-12T08:35:35;4.40;;;2.80;;
78838;SDS011;68405;47.190;27.558;2023-09-12T08:38:04;5.40;;;2.50;;
78838;SDS011;68405;47.190;27.558;2023-09-12T08:40:33;4.50;;;2.60;;
78838;SDS011;68405;47.190;27.558;2023-09-12T08:43:03;5.00;;;2.60;;
78838;SDS011;68405;47.190;27.558;2023-09-12T08:45:33;4.70;;;2.10;;
78838;SDS011;68405;47.190;27.558;2023-09-12T08:48:04;6.20;;;3.30;;
78838;SDS011;68405;47.190;27.558;2023-09-12T08:50:35;4.20;;;2.50;;
78838;SDS011;68405;47.190;27.558;2023-09-12T08:53:05;4.10;;;2.70;;
78838;SDS011;68405;47.190;27.558;2023-09-12T08:55:34;5.30;;;2.10;;
78838;SDS011;68405;47.190;27.558;2023-09-12T08:58:04;3.50;;;1.90;;
78838;SDS011;68405;47.190;27.558;2023-09-12T09:00:33;4.80;;;2.20;;
78838;SDS011;68405;47.190;27.558;2023-09-12T09:03:04;4.90;;;2.20;;
78838;SDS011;68405;47.190;27.558;2023-09-12T09:05:33;2.60;;;2.00;;
78838;SDS011;68405;47.190;27.558;2023-09-12T09:08:06;5.10;;;2.10;;
78838;SDS011;68405;47.190;27.558;2023-09-12T09:10:35;4.40;;;2.30;;
78838;SDS011;68405;47.190;27.558;2023-09-12T09:13:05;4.00;;;2.10;;
78838;SDS011;68405;47.190;27.558;2023-09-12T09:15:37;7.80;;;2.50;;
78838;SDS011;68405;47.190;27.558;2023-09-12T09:18:08;2.90;;;2.00;;
78838;SDS011;68405;47.190;27.558;2023-09-12T09:20:39;3.50;;;2.10;;
78838;SDS011;68405;47.190;27.558;2023-09-12T09:23:09;3.40;;;2.40;;
78838;SDS011;68405;47.190;27.558;2023-09-12T09:25:39;3.70;;;2.40;;
78838;SDS011;68405;47.190;27.558;2023-09-12T09:28:16;5.70;;;2.40;;
78838;SDS011;68405;47.190;27.558;2023-09-12T09:30:45;4.30;;;2.10;;
78838;SDS011;68405;47.190;27.558;2023-09-12T09:33:15;4.10;;;2.50;;
78838;SDS011;68405;47.190;27.558;2023-09-12T09:35:46;6.00;;;2.40;;
78838;SDS011;68405;47.190;27.558;2023-09-12T09:38:18;4.00;;;2.20;;
78838;SDS011;68405;47.190;27.558;2023-09-12T09:40:47;3.00;;;2.00;;
78838;SDS011;68405;47.190;27.558;2023-09-12T09:43:20;4.20;;;1.90;;
78838;SDS011;68405;47.190;27.558;2023-09-12T09:45:51;2.80;;;1.90;;
78838;SDS011;68405;47.190;27.558;2023-09-12T09:48:21;4.00;;;2.00;;
78838;SDS011;68405;47.190;27.558;2023-09-12T09:50:51;3.60;;;1.80;;
78838;SDS011;68405;47.190;27.558;2023-09-12T09:53:22;3.80;;;1.80;;
78838;SDS011;68405;47.190;27.558;2023-09-12T09:56:06;4.10;;;1.90;;
78838;SDS011;68405;47.190;27.558;2023-09-12T09:58:36;4.40;;;2.20;;
78838;SDS011;68405;47.190;27.558;2023-09-12T10:03:39;4.20;;;1.80;;
78838;SDS011;68405;47.190;27.558;2023-09-12T10:06:10;7.10;;;2.20;;
78838;SDS011;68405;47.190;27.558;2023-09-12T10:08:40;2.80;;;1.70;;
78838;SDS011;68405;47.190;27.558;2023-09-12T10:11:10;5.40;;;2.60;;
78838;SDS011;68405;47.190;27.558;2023-09-12T10:13:42;2.90;;;2.00;;
78838;SDS011;68405;47.190;27.558;2023-09-12T10:16:20;4.00;;;1.60;;
78838;SDS011;68405;47.190;27.558;2023-09-12T10:18:56;3.60;;;1.70;;
78838;SDS011;68405;47.190;27.558;2023-09-12T10:21:31;4.20;;;1.70;;
78838;SDS011;68405;47.190;27.558;2023-09-12T10:24:02;3.70;;;1.70;;
78838;SDS011;68405;47.190;27.558;2023-09-12T10:26:33;4.70;;;1.90;;
78838;SDS011;68405;47.190;27.558;2023-09-12T10:29:04;3.40;;;1.70;;
78838;SDS011;68405;47.190;27.558;2023-09-12T10:31:33;2.20;;;1.60;;
78838;SDS011;68405;47.190;27.558;2023-09-12T10:34:02;2.90;;;1.60;;
78838;SDS011;68405;47.190;27.558;2023-09-12T10:36:33;4.00;;;1.80;;
78838;SDS011;68405;47.190;27.558;2023-09-12T10:39:04;4.00;;;1.60;;
78838;SDS011;68405;47.190;27.558;2023-09-12T10:41:34;4.20;;;1.80;;
78838;SDS011;68405;47.190;27.558;2023-09-12T10:44:08;5.30;;;2.00;;
78838;SDS011;68405;47.190;27.558;2023-09-12T10:49:08;3.90;;;1.60;;
78838;SDS011;68405;47.190;27.558;2023-09-12T10:51:41;2.80;;;1.60;;
78838;SDS011;68405;47.190;27.558;2023-09-12T10:54:14;5.30;;;1.90;;
78838;SDS011;68405;47.190;27.558;2023-09-12T10:57:02;4.30;;;1.70;;
78838;SDS011;68405;47.190;27.558;2023-09-12T10:59:33;4.60;;;1.90;;
78838;SDS011;68405;47.190;27.558;2023-09-12T11:04:57;4.50;;;1.60;;
78838;SDS011;68405;47.190;27.558;2023-09-12T11:07:44;4.00;;;1.50;;
78838;SDS011;68405;47.190;27.558;2023-09-12T11:10:17;3.30;;;1.50;;
78838;SDS011;68405;47.190;27.558;2023-09-12T11:12:51;4.20;;;1.70;;
78838;SDS011;68405;47.190;27.558;2023-09-12T11:15:21;3.90;;;2.20;;
78838;SDS011;68405;47.190;27.558;2023-09-12T11:18:00;5.00;;;1.80;;
78838;SDS011;68405;47.190;27.558;2023-09-12T11:23:20;5.40;;;1.50;;
78838;SDS011;68405;47.190;27.558;2023-09-12T11:25:50;3.50;;;1.70;;
78838;SDS011;68405;47.190;27.558;2023-09-12T11:28:33;3.50;;;1.60;;
78838;SDS011;68405;47.190;27.558;2023-09-12T11:31:02;5.60;;;1.80;;
78838;SDS011;68405;47.190;27.558;2023-09-12T11:33:33;3.10;;;1.60;;
78838;SDS011;68405;47.190;27.558;2023-09-12T11:36:06;4.30;;;2.00;;
78838;SDS011;68405;47.190;27.558;2023-09-12T11:38:43;4.90;;;1.90;;
78838;SDS011;68405;47.190;27.558;2023-09-12T11:44:17;5.70;;;2.00;;
78838;SDS011;68405;47.190;27.558;2023-09-12T11:46:48;6.40;;;1.80;;
78838;SDS011;68405;47.190;27.558;2023-09-12T11:49:17;4.00;;;2.00;;
78838;SDS011;68405;47.190;27.558;2023-09-12T11:51:48;3.70;;;1.70;;
78838;SDS011;68405;47.190;27.558;2023-09-12T11:54:19;4.90;;;1.80;;
78838;SDS011;68405;47.190;27.558;2023-09-12T11:56:52;3.70;;;1.80;;
78838;SDS011;68405;47.190;27.558;2023-09-12T11:59:23;4.50;;;1.90;;
78838;SDS011;68405;47.190;27.558;2023-09-12T12:01:53;4.50;;;1.90;;
78838;SDS011;68405;47.190;27.558;2023-09-12T12:04:25;3.40;;;1.40;;
78838;SDS011;68405;47.190;27.558;2023-09-12T12:06:54;6.20;;;2.20;;
78838;SDS011;68405;47.190;27.558;2023-09-12T12:09:24;6.10;;;2.00;;
78838;SDS011;68405;47.190;27.558;2023-09-12T12:11:53;5.30;;;1.90;;
78838;SDS011;68405;47.190;27.558;2023-09-12T12:14:22;3.50;;;1.80;;
78838;SDS011;68405;47.190;27.558;2023-09-12T12:16:52;4.00;;;1.90;;
78838;SDS011;68405;47.190;27.558;2023-09-12T12:19:21;6.40;;;2.10;;
78838;SDS011;68405;47.190;27.558;2023-09-12T12:21:50;4.20;;;1.70;;
78838;SDS011;68405;47.190;27.558;2023-09-12T12:24:20;3.70;;;1.70;;
78838;SDS011;68405;47.190;27.558;2023-09-12T12:26:49;4.20;;;1.60;;
78838;SDS011;68405;47.190;27.558;2023-09-12T12:29:20;3.30;;;2.10;;
78838;SDS011;68405;47.190;27.558;2023-09-12T12:31:51;3.00;;;1.50;;
78838;SDS011;68405;47.190;27.558;2023-09-12T12:34:22;5.20;;;1.80;;
78838;SDS011;68405;47.190;27.558;2023-09-12T12:36:51;8.30;;;2.20;;
78838;SDS011;68405;47.190;27.558;2023-09-12T12:39:21;2.80;;;1.80;;
78838;SDS011;68405;47.190;27.558;2023-09-12T12:41:52;2.70;;;1.60;;
78838;SDS011;68405;47.190;27.558;2023-09-12T12:44:22;2.30;;;1.60;;
78838;SDS011;68405;47.190;27.558;2023-09-12T12:47:03;4.00;;;1.70;;
78838;SDS011;68405;47.190;27.558;2023-09-12T12:49:36;4.20;;;1.60;;
78838;SDS011;68405;47.190;27.558;2023-09-12T12:52:08;5.90;;;2.30;;
78838;SDS011;68405;47.190;27.558;2023-09-12T12:54:38;3.40;;;1.70;;
78838;SDS011;68405;47.190;27.558;2023-09-12T12:57:10;3.20;;;1.90;;
78838;SDS011;68405;47.190;27.558;2023-09-12T12:59:45;7.10;;;1.80;;
78838;SDS011;68405;47.190;27.558;2023-09-12T13:02:15;3.90;;;1.60;;
78838;SDS011;68405;47.190;27.558;2023-09-12T13:04:44;3.30;;;1.50;;
78838;SDS011;68405;47.190;27.558;2023-09-12T13:07:13;5.00;;;1.70;;
78838;SDS011;68405;47.190;27.558;2023-09-12T13:09:42;3.90;;;1.60;;
78838;SDS011;68405;47.190;27.558;2023-09-12T13:12:15;5.80;;;1.80;;
78838;SDS011;68405;47.190;27.558;2023-09-12T13:14:44;3.40;;;2.00;;
78838;SDS011;68405;47.190;27.558;2023-09-12T13:17:14;3.70;;;1.60;;
78838;SDS011;68405;47.190;27.558;2023-09-12T13:19:43;3.60;;;1.70;;
78838;SDS011;68405;47.190;27.558;2023-09-12T13:22:12;4.30;;;1.90;;
78838;SDS011;68405;47.190;27.558;2023-09-12T13:24:41;6.60;;;1.80;;
78838;SDS011;68405;47.190;27.558;2023-09-12T13:27:09;3.50;;;2.00;;
78838;SDS011;68405;47.190;27.558;2023-09-12T13:29:39;5.10;;;1.80;;
78838;SDS011;68405;47.190;27.558;2023-09-12T13:32:08;5.70;;;2.40;;
78838;SDS011;68405;47.190;27.558;2023-09-12T13:34:39;5.80;;;1.90;;
78838;SDS011;68405;47.190;27.558;2023-09-12T13:37:08;3.30;;;1.90;;
78838;SDS011;68405;47.190;27.558;2023-09-12T13:39:37;2.90;;;1.90;;
78838;SDS011;68405;47.190;27.558;2023-09-12T13:42:06;6.30;;;2.30;;
78838;SDS011;68405;47.190;27.558;2023-09-12T13:44:36;3.10;;;1.70;;
78838;SDS011;68405;47.190;27.558;2023-09-12T13:47:09;4.20;;;2.00;;
78838;SDS011;68405;47.190;27.558;2023-09-12T13:49:38;4.50;;;1.60;;
78838;SDS011;68405;47.190;27.558;2023-09-12T13:52:06;3.70;;;1.90;;
78838;SDS011;68405;47.190;27.558;2023-09-12T13:54:35;2.90;;;1.80;;
78838;SDS011;68405;47.190;27.558;2023-09-12T13:57:05;4.30;;;1.70;;
78838;SDS011;68405;47.190;27.558;2023-09-12T13:59:33;4.40;;;1.90;;
78838;SDS011;68405;47.190;27.558;2023-09-12T14:02:03;4.70;;;2.00;;
78838;SDS011;68405;47.190;27.558;2023-09-12T14:04:32;3.20;;;2.00;;
78838;SDS011;68405;47.190;27.558;2023-09-12T14:07:01;4.20;;;1.80;;
78838;SDS011;68405;47.190;27.558;2023-09-12T14:09:31;5.10;;;1.80;;
78838;SDS011;68405;47.190;27.558;2023-09-12T14:11:59;6.40;;;2.10;;
78838;SDS011;68405;47.190;27.558;2023-09-12T14:14:28;3.50;;;1.70;;
78838;SDS011;68405;47.190;27.558;2023-09-12T14:16:58;8.70;;;2.30;;
78838;SDS011;68405;47.190;27.558;2023-09-12T14:19:27;5.00;;;1.90;;
78838;SDS011;68405;47.190;27.558;2023-09-12T14:21:56;5.60;;;2.30;;
78838;SDS011;68405;47.190;27.558;2023-09-12T14:24:25;3.50;;;1.80;;
78838;SDS011;68405;47.190;27.558;2023-09-12T14:26:54;4.10;;;1.60;;
78838;SDS011;68405;47.190;27.558;2023-09-12T14:29:23;5.70;;;2.00;;
78838;SDS011;68405;47.190;27.558;2023-09-12T14:31:54;4.10;;;1.90;;
78838;SDS011;68405;47.190;27.558;2023-09-12T14:34:24;7.30;;;2.40;;
78838;SDS011;68405;47.190;27.558;2023-09-12T14:36:54;3.90;;;1.80;;
78838;SDS011;68405;47.190;27.558;2023-09-12T14:39:24;4.80;;;2.00;;
78838;SDS011;68405;47.190;27.558;2023-09-12T14:41:53;6.90;;;1.90;;
78838;SDS011;68405;47.190;27.558;2023-09-12T14:44:23;5.80;;;2.30;;
78838;SDS011;68405;47.190;27.558;2023-09-12T14:46:52;3.30;;;2.20;;
78838;SDS011;68405;47.190;27.558;2023-09-12T14:49:21;3.50;;;1.80;;
78838;SDS011;68405;47.190;27.558;2023-09-12T14:51:50;8.00;;;2.10;;
78838;SDS011;68405;47.190;27.558;2023-09-12T14:54:19;3.40;;;2.30;;
78838;SDS011;68405;47.190;27.558;2023-09-12T14:56:49;4.20;;;2.20;;
78838;SDS011;68405;47.190;27.558;2023-09-12T14:59:18;5.30;;;2.00;;
78838;SDS011;68405;47.190;27.558;2023-09-12T15:01:47;4.00;;;2.20;;